In Rescue
 
Open Full Screen Window  High Contrast Mode
Wind Gusting 14 knots
09
May 27, 2024 1:38 PM CDT
Present Weather: Thunderstorm
Weather Information
Wind Direction
  280 °
Wind Speed
  09 kt (10 mph)
Wind Gust
  14 kt (16 mph)
Altimeter
29.80 in
Visibility
10 SM
Temperature
19° C
66° F
Dewpoint
11° C
52° F
Humidity
60%
Sky Condition
Scattered @ 3,600 ft
VFR

METAR KGHW 271838Z AUTO 28009G14KT 10SM TS SCT036 19/11 A2980 RMK AO2 LTG DSNT SW

FAA Disclaimer: The data displayed is for advisory purposes only and is not to be used for flight planning or operations.